KSVC  Grant County Airport

Add Bookmark

Silver City, New Mexico, United States

Status Useage IATA
Operational Public SVC
Latitude Longitude
32° 38' 11" N 108° 9' 22" W
32.636547 -108.156385
Local (DST -6) UTC (GMT -7)
Nov 26, 2014 06:28 Nov 27, 2014 01:28
Sunrise-Sunset Local UTC
Begin Civil Twilight 06:25 13:25
Sunrise 06:51 13:51
Sunset 05:08 00:08
End Civil Twilight 05:35 00:35

Current Weather

METAR Observed VFR
KSVC 270055Z AUTO 09003KT 10SM CLR 10/M08 A3035 Thu, Nov 27, 2014 @ 00:55 UTC
(33 Minutes ago)
Visual Flight Rules
Wind Visibility Clouds Conditions
090° at 3 knots (3 mph) 10 statute miles
  • Clear skies
  • No significant weather
Temperatures Readings Precipitation
Current Temp 10°C (50°F)
Dewpoint -8°C (18°F)
Humidity 28%
Altimeter 30.35"Hg
Sea Level Pressure 1028mb
Field Elevation 5443.01'
None Recorded

Additional weather within a 50nm radius of KSVC

Map ICAO Location
KDMN 31.5nm S (135°)
KLSB 32.6nm S (236°)

24 Hour Weather History

Loading
-

24 Hour Weather Graphs

Loading
-

CheckWX.com is intended as a tool to help pilots better visualize weather data. It is not intended as a substitute for an official weather briefing obtained from a Flight Service Station. CheckWX.com does not meet the FAA requirements for an official pre-flight weather briefing. Therefore, it's important that pilots still call and obtain an official FSS pre-flight weather briefing.